createdAt,value
2022-09-29T00:00:33.511Z,92.34
2022-09-29T00:03:00.070Z,92.31
2022-09-29T00:05:26.686Z,92.26
2022-09-29T00:07:53.141Z,92.16
2022-09-29T00:10:19.933Z,92.79
2022-09-29T00:12:46.609Z,93.12
2022-09-29T00:15:13.817Z,92.50
2022-09-29T00:17:46.632Z,92.53
2022-09-29T00:20:24.493Z,92.06
2022-09-29T00:22:51.661Z,92.23
2022-09-29T00:25:18.890Z,92.01
2022-09-29T00:27:45.380Z,92.30
2022-09-29T00:30:12.333Z,92.87
2022-09-29T00:32:38.746Z,92.28
2022-09-29T00:35:07.043Z,92.73
2022-09-29T00:37:33.463Z,92.10
2022-09-29T00:40:00.354Z,92.18
2022-09-29T00:42:27.443Z,92.76
2022-09-29T00:45:04.128Z,92.24
2022-09-29T00:47:31.866Z,92.77
2022-09-29T00:50:02.210Z,92.71
2022-09-29T00:52:37.545Z,92.71
2022-09-29T00:55:04.014Z,92.12
2022-09-29T00:57:34.787Z,91.64
2022-09-29T01:00:10.948Z,92.20
2022-09-29T01:02:59.934Z,93.02
2022-09-29T01:05:29.519Z,93.14
2022-09-29T01:07:55.989Z,93.12
2022-09-29T01:10:23.354Z,93.12
2022-09-29T01:12:50.307Z,93.16
2022-09-29T01:15:17.831Z,93.69
2022-09-29T01:17:44.454Z,93.61
2022-09-29T01:20:13.289Z,93.30
2022-09-29T01:22:52.106Z,93.07
2022-09-29T01:25:31.345Z,92.94
2022-09-29T01:28:24.158Z,93.73
2022-09-29T01:31:02.603Z,94.71
2022-09-29T01:33:47.721Z,92.67
2022-09-29T01:36:28.437Z,93.60
2022-09-29T01:39:02.015Z,94.40
2022-09-29T01:41:33.367Z,94.31
2022-09-29T01:44:20.149Z,94.52
2022-09-29T01:47:05.254Z,94.53
2022-09-29T01:49:33.734Z,93.81
2022-09-29T01:52:03.106Z,94.08
2022-09-29T01:54:34.711Z,93.22
2022-09-29T01:57:06.570Z,91.33
2022-09-29T01:59:44.337Z,92.31
2022-09-29T02:02:14.262Z,92.85
2022-09-29T02:04:44.318Z,91.70
2022-09-29T02:07:14.365Z,92.58
2022-09-29T02:09:44.500Z,90.94
2022-09-29T02:12:13.621Z,90.51
2022-09-29T02:14:42.930Z,90.13
2022-09-29T02:17:19.486Z,91.78
2022-09-29T02:19:47.465Z,93.06
2022-09-29T02:22:14.573Z,93.31
2022-09-29T02:24:41.674Z,92.66
2022-09-29T02:27:08.434Z,93.09
2022-09-29T02:29:35.926Z,92.94
2022-09-29T02:32:03.064Z,94.10
2022-09-29T02:34:34.603Z,94.17
2022-09-29T02:37:15.258Z,94.30
2022-09-29T02:39:53.854Z,94.17
2022-09-29T02:42:32.645Z,94.19
2022-09-29T02:45:17.898Z,94.29
2022-09-29T02:47:53.233Z,93.92
2022-09-29T02:50:19.678Z,94.59
2022-09-29T02:52:48.891Z,93.54
2022-09-29T02:55:31.603Z,93.86
2022-09-29T02:58:20.514Z,94.12
2022-09-29T03:00:47.348Z,94.31
2022-09-29T03:03:13.975Z,93.43
2022-09-29T03:05:40.422Z,94.55
2022-09-29T03:08:06.859Z,94.10
2022-09-29T03:10:33.271Z,93.96
2022-09-29T03:12:59.801Z,93.37
2022-09-29T03:15:26.202Z,92.60
2022-09-29T03:17:54.966Z,92.92
2022-09-29T03:20:21.579Z,89.04
2022-09-29T03:22:48.085Z,92.63
2022-09-29T03:25:14.836Z,92.73
2022-09-29T03:27:41.839Z,93.79
2022-09-29T03:30:08.782Z,93.91
2022-09-29T03:32:35.217Z,94.11
2022-09-29T03:35:01.632Z,93.09
2022-09-29T03:37:28.141Z,93.13
2022-09-29T03:39:54.550Z,93.40
2022-09-29T03:42:24.136Z,93.41
2022-09-29T03:44:50.654Z,93.30
2022-09-29T03:47:17.149Z,92.95
2022-09-29T03:49:43.616Z,93.31
2022-09-29T03:52:10.056Z,93.57
2022-09-29T03:54:36.520Z,93.54
2022-09-29T03:57:03.038Z,92.88
2022-09-29T03:59:29.434Z,93.11
2022-09-29T04:01:56.383Z,93.60
2022-09-29T04:04:22.866Z,93.44
2022-09-29T04:06:49.265Z,93.48
2022-09-29T04:09:15.780Z,93.75
2022-09-29T04:11:42.417Z,95.15
2022-09-29T04:14:08.835Z,95.99
2022-09-29T04:16:35.319Z,95.01
2022-09-29T04:19:01.817Z,95.00
2022-09-29T04:21:28.287Z,95.41
2022-09-29T04:23:54.699Z,96.15
2022-09-29T04:26:21.194Z,95.96
2022-09-29T04:28:47.936Z,96.48
2022-09-29T04:31:14.741Z,97.48
2022-09-29T04:33:41.558Z,98.17
2022-09-29T04:36:08.322Z,98.40
2022-09-29T04:38:35.281Z,97.10
2022-09-29T04:41:01.860Z,93.65
2022-09-29T04:43:28.663Z,96.97
2022-09-29T04:46:01.425Z,96.72
2022-09-29T04:48:27.874Z,98.63
2022-09-29T04:50:55.010Z,98.70
2022-09-29T04:53:21.466Z,98.78
2022-09-29T04:55:47.961Z,96.69
2022-09-29T04:58:15.423Z,98.04
2022-09-29T05:00:41.922Z,98.00
2022-09-29T05:03:08.351Z,98.88
2022-09-29T05:05:34.755Z,99.78
2022-09-29T05:08:04.131Z,100.00
2022-09-29T05:10:30.923Z,100.00
2022-09-29T05:12:57.381Z,100.00
2022-09-29T05:15:26.083Z,99.30
2022-09-29T05:17:52.947Z,100.00
2022-09-29T05:20:19.581Z,100.00
2022-09-29T05:22:46.017Z,100.00
2022-09-29T05:25:12.521Z,100.00
2022-09-29T05:27:38.944Z,100.00
2022-09-29T05:30:05.733Z,100.00
2022-09-29T05:32:32.176Z,100.00
2022-09-29T05:34:59.540Z,100.00
2022-09-29T05:37:25.949Z,100.00
2022-09-29T05:39:52.462Z,100.00
2022-09-29T05:42:19.370Z,100.00
2022-09-29T05:44:45.813Z,100.00
2022-09-29T05:47:12.254Z,100.00
2022-09-29T05:49:39.150Z,100.00
2022-09-29T05:52:05.557Z,100.00
2022-09-29T05:54:32.104Z,100.00
2022-09-29T05:56:58.559Z,100.00
2022-09-29T05:59:24.984Z,100.00
2022-09-29T06:01:51.494Z,100.00
2022-09-29T06:04:17.981Z,100.00
2022-09-29T06:06:44.524Z,100.00
2022-09-29T06:09:11.192Z,100.00
2022-09-29T06:11:37.670Z,100.00
2022-09-29T06:14:04.159Z,100.00
2022-09-29T06:16:31.939Z,100.00
2022-09-29T06:18:59.011Z,100.00
2022-09-29T06:21:26.735Z,100.00
2022-09-29T06:23:56.846Z,100.00
2022-09-29T06:26:24.688Z,100.00
2022-09-29T06:28:52.061Z,100.00
2022-09-29T06:31:19.704Z,100.00
2022-09-29T06:33:46.646Z,100.00
2022-09-29T06:36:39.447Z,100.00
2022-09-29T06:39:06.796Z,100.00
2022-09-29T06:41:34.268Z,100.00
2022-09-29T06:44:01.047Z,100.00
2022-09-29T06:46:27.566Z,100.00
2022-09-29T06:48:54.600Z,100.00
2022-09-29T06:51:22.681Z,100.00
2022-09-29T06:53:50.167Z,100.00
2022-09-29T06:56:17.251Z,100.00
2022-09-29T06:58:44.842Z,100.00
2022-09-29T07:01:12.694Z,100.00
2022-09-29T07:03:39.220Z,100.00
2022-09-29T07:06:19.380Z,100.00
2022-09-29T07:08:46.546Z,100.00
2022-09-29T07:11:13.057Z,100.00
2022-09-29T07:13:39.492Z,100.00
2022-09-29T07:16:07.033Z,100.00
2022-09-29T07:18:40.288Z,100.00
2022-09-29T07:21:07.838Z,100.00
2022-09-29T07:23:34.318Z,100.00
2022-09-29T07:26:00.899Z,100.00
2022-09-29T07:28:27.750Z,100.00
2022-09-29T07:31:11.713Z,100.00
2022-09-29T07:33:41.204Z,100.00
2022-09-29T07:36:08.063Z,100.00
2022-09-29T07:38:34.703Z,100.00
2022-09-29T07:41:02.515Z,100.00
2022-09-29T07:43:29.955Z,100.00
2022-09-29T07:45:56.527Z,100.00
2022-09-29T07:48:23.002Z,100.00
2022-09-29T07:50:49.459Z,100.00
2022-09-29T07:53:15.915Z,100.00
2022-09-29T07:55:42.359Z,100.00
2022-09-29T07:58:08.839Z,100.00
2022-09-29T08:00:35.309Z,100.00
2022-09-29T08:03:02.441Z,100.00
2022-09-29T08:05:30.073Z,100.00
2022-09-29T08:07:57.979Z,100.00
2022-09-29T08:10:24.741Z,100.00
2022-09-29T08:12:51.150Z,100.00
2022-09-29T08:15:17.618Z,100.00
2022-09-29T08:17:44.114Z,100.00
2022-09-29T08:20:10.545Z,100.00
2022-09-29T08:22:36.975Z,100.00
2022-09-29T08:25:03.542Z,100.00
2022-09-29T08:27:30.046Z,100.00
2022-09-29T08:29:58.548Z,100.00
2022-09-29T08:32:25.204Z,100.00
2022-09-29T08:34:51.722Z,100.00
2022-09-29T08:37:18.168Z,100.00
2022-09-29T08:39:44.608Z,100.00
2022-09-29T08:42:17.145Z,100.00
2022-09-29T08:45:11.402Z,100.00
2022-09-29T08:47:47.806Z,100.00
2022-09-29T08:50:20.635Z,99.32
2022-09-29T08:52:52.774Z,99.11
2022-09-29T08:55:21.986Z,99.72
2022-09-29T08:57:53.707Z,99.56
2022-09-29T09:00:20.813Z,99.81
2022-09-29T09:03:05.878Z,99.27
2022-09-29T09:05:40.240Z,99.65
2022-09-29T09:08:18.848Z,99.73
2022-09-29T09:10:47.405Z,99.50
2022-09-29T09:13:16.917Z,100.00
2022-09-29T09:16:02.198Z,100.00
2022-09-29T09:18:34.185Z,100.00
2022-09-29T09:21:03.681Z,100.00
2022-09-29T09:23:46.762Z,100.00
2022-09-29T09:26:13.782Z,100.00
2022-09-29T09:28:43.229Z,100.00
2022-09-29T09:31:16.335Z,100.00
2022-09-29T09:34:01.435Z,100.00
2022-09-29T09:37:06.563Z,99.98
2022-09-29T09:39:40.191Z,100.00
2022-09-29T09:42:11.368Z,100.00
2022-09-29T09:44:43.747Z,100.00
2022-09-29T09:47:10.147Z,100.00
2022-09-29T09:49:39.449Z,100.00
2022-09-29T09:52:18.199Z,100.00
2022-09-29T09:54:46.330Z,100.00
2022-09-29T09:57:28.193Z,100.00
2022-09-29T10:00:13.500Z,100.00
2022-09-29T10:03:01.818Z,100.00
2022-09-29T10:05:42.520Z,100.00
2022-09-29T10:08:27.678Z,100.00
2022-09-29T10:10:58.711Z,100.00
2022-09-29T10:13:27.041Z,100.00
2022-09-29T10:15:56.408Z,100.00
2022-09-29T10:18:22.791Z,100.00
2022-09-29T10:20:49.225Z,100.00
2022-09-29T10:23:35.088Z,100.00
2022-09-29T10:26:25.821Z,100.00
2022-09-29T10:29:00.672Z,100.00
2022-09-29T10:31:29.008Z,100.00
2022-09-29T10:34:04.610Z,100.00
2022-09-29T10:36:32.582Z,100.00
2022-09-29T10:39:00.918Z,100.00
2022-09-29T10:41:30.955Z,100.00
2022-09-29T10:44:14.314Z,100.00
2022-09-29T10:46:54.794Z,100.00
2022-09-29T10:49:22.351Z,100.00
2022-09-29T10:52:20.951Z,100.00
2022-09-29T10:55:00.762Z,100.00
2022-09-29T10:57:28.703Z,100.00
2022-09-29T10:59:57.243Z,100.00
2022-09-29T11:02:27.812Z,100.00
2022-09-29T11:04:56.333Z,100.00
2022-09-29T11:07:22.866Z,100.00
2022-09-29T11:09:50.847Z,100.00
2022-09-29T11:12:26.154Z,100.00
2022-09-29T11:14:52.866Z,100.00
2022-09-29T11:17:22.765Z,100.00
2022-09-29T11:19:50.173Z,100.00
2022-09-29T11:22:24.922Z,100.00
2022-09-29T11:25:10.234Z,100.00
2022-09-29T11:27:53.639Z,99.92
2022-09-29T11:30:38.295Z,98.81
2022-09-29T11:33:11.029Z,98.98
2022-09-29T11:35:38.851Z,97.40
2022-09-29T11:38:06.012Z,94.95
2022-09-29T11:40:48.962Z,96.65
2022-09-29T11:43:34.307Z,98.87
2022-09-29T11:46:11.324Z,99.04
2022-09-29T11:48:56.580Z,100.00
2022-09-29T11:51:30.481Z,100.00
2022-09-29T11:54:23.530Z,99.16
2022-09-29T11:56:55.406Z,99.23
2022-09-29T11:59:41.953Z,98.20
2022-09-29T12:02:19.237Z,93.71
2022-09-29T12:05:06.058Z,94.81
2022-09-29T12:07:45.217Z,95.42
2022-09-29T12:10:26.112Z,95.51
2022-09-29T12:13:02.114Z,94.43
2022-09-29T12:15:33.411Z,93.73
2022-09-29T12:18:08.004Z,94.60
2022-09-29T12:20:36.502Z,94.13
2022-09-29T12:23:05.727Z,93.79
2022-09-29T12:25:35.051Z,94.00
2022-09-29T12:28:22.159Z,94.86
2022-09-29T12:30:52.978Z,94.53
2022-09-29T12:33:25.858Z,94.45
2022-09-29T12:36:27.866Z,94.69
2022-09-29T12:38:56.771Z,94.93
2022-09-29T12:41:26.918Z,95.62
2022-09-29T12:44:12.383Z,96.20
2022-09-29T12:46:43.157Z,96.16
2022-09-29T12:49:22.053Z,95.93
2022-09-29T12:51:49.623Z,95.47
2022-09-29T12:54:26.291Z,95.65
2022-09-29T12:56:58.595Z,95.50
2022-09-29T12:59:40.462Z,96.08
2022-09-29T13:02:16.210Z,96.72
2022-09-29T13:04:42.703Z,97.81
2022-09-29T13:07:21.165Z,97.90
2022-09-29T13:10:06.153Z,96.81
2022-09-29T13:12:52.786Z,96.13
2022-09-29T13:15:19.227Z,96.45
2022-09-29T13:18:04.806Z,95.77
2022-09-29T13:20:42.739Z,95.67
2022-09-29T13:23:18.454Z,94.96
2022-09-29T13:26:07.042Z,95.69
2022-09-29T13:28:36.411Z,95.58
2022-09-29T13:31:05.427Z,95.59
2022-09-29T13:33:32.853Z,95.83
2022-09-29T13:35:59.488Z,96.68
2022-09-29T13:38:28.963Z,97.90
2022-09-29T13:41:13.089Z,99.01
2022-09-29T13:43:51.460Z,99.72
2022-09-29T13:46:36.361Z,99.95
2022-09-29T13:49:12.098Z,100.00
2022-09-29T13:51:43.689Z,100.00
2022-09-29T13:54:29.704Z,100.00
2022-09-29T13:57:05.294Z,100.00
2022-09-29T13:59:32.234Z,98.93
2022-09-29T14:01:59.054Z,98.46
2022-09-29T14:04:46.199Z,98.08
2022-09-29T14:07:14.054Z,98.85
2022-09-29T14:09:43.719Z,99.66
2022-09-29T14:12:19.254Z,99.71
2022-09-29T14:14:51.041Z,99.06
2022-09-29T14:17:21.380Z,100.00
2022-09-29T14:19:53.418Z,97.47
2022-09-29T14:22:38.390Z,97.95
2022-09-29T14:25:07.573Z,96.86
2022-09-29T14:27:37.097Z,97.35
2022-09-29T14:30:09.634Z,97.01
2022-09-29T14:32:41.926Z,97.63
2022-09-29T14:35:19.770Z,97.99
2022-09-29T14:37:48.414Z,98.43
2022-09-29T14:40:29.208Z,98.23
2022-09-29T14:43:02.648Z,98.69
2022-09-29T14:45:48.982Z,96.95
2022-09-29T14:48:45.417Z,96.20
2022-09-29T14:51:35.576Z,95.70
2022-09-29T14:54:10.865Z,94.91
2022-09-29T14:56:55.216Z,94.69
2022-09-29T14:59:31.475Z,94.40
2022-09-29T15:02:11.959Z,95.22
2022-09-29T15:04:42.098Z,94.29
2022-09-29T15:07:13.196Z,95.35
2022-09-29T15:09:39.889Z,96.72
2022-09-29T15:12:15.039Z,97.26
2022-09-29T15:14:42.194Z,97.33
2022-09-29T15:17:08.931Z,97.95
2022-09-29T15:19:41.469Z,98.60
2022-09-29T15:22:26.710Z,94.20
2022-09-29T15:24:53.105Z,94.65
2022-09-29T15:27:20.597Z,96.73
2022-09-29T15:29:53.994Z,97.63
2022-09-29T15:32:28.530Z,96.74
2022-09-29T15:35:01.282Z,94.91
2022-09-29T15:37:37.288Z,94.14
2022-09-29T15:40:03.935Z,94.12
2022-09-29T15:42:30.406Z,95.53
2022-09-29T15:45:00.959Z,97.47
2022-09-29T15:47:29.443Z,97.53
2022-09-29T15:49:55.954Z,98.25
2022-09-29T15:52:23.588Z,99.37
2022-09-29T15:54:55.217Z,98.95
2022-09-29T15:57:43.082Z,98.75
2022-09-29T16:00:21.810Z,97.28
2022-09-29T16:03:02.231Z,96.66
2022-09-29T16:05:31.720Z,96.59
2022-09-29T16:08:14.303Z,97.56
2022-09-29T16:10:42.387Z,97.67
2022-09-29T16:13:16.705Z,98.62
2022-09-29T16:15:45.014Z,99.48
2022-09-29T16:18:22.037Z,99.89
2022-09-29T16:20:49.367Z,99.38
2022-09-29T16:23:15.779Z,99.71
2022-09-29T16:25:42.293Z,99.50
2022-09-29T16:28:23.853Z,99.96
2022-09-29T16:31:04.132Z,100.00
2022-09-29T16:33:33.044Z,99.95
2022-09-29T16:35:59.451Z,99.46
2022-09-29T16:38:36.597Z,99.14
2022-09-29T16:41:21.711Z,98.43
2022-09-29T16:43:49.974Z,99.33
2022-09-29T16:46:18.526Z,99.45
2022-09-29T16:48:46.086Z,99.20
2022-09-29T16:51:39.242Z,99.11
2022-09-29T16:54:06.450Z,100.00
2022-09-29T16:56:35.434Z,100.00
2022-09-29T16:59:12.973Z,100.00
2022-09-29T17:01:41.223Z,99.98
2022-09-29T17:04:08.147Z,99.87
2022-09-29T17:06:34.697Z,100.00
2022-09-29T17:09:01.243Z,100.00
2022-09-29T17:11:28.747Z,100.00
2022-09-29T17:13:58.142Z,100.00
2022-09-29T17:16:25.260Z,100.00
2022-09-29T17:18:52.662Z,100.00
2022-09-29T17:21:19.920Z,100.00
2022-09-29T17:23:46.441Z,100.00
2022-09-29T17:26:50.329Z,100.00
2022-09-29T17:29:16.785Z,100.00
2022-09-29T17:31:43.222Z,100.00
2022-09-29T17:34:09.682Z,100.00
2022-09-29T17:36:36.920Z,100.00
2022-09-29T17:39:03.423Z,100.00
2022-09-29T17:41:29.894Z,100.00
2022-09-29T17:43:56.319Z,100.00
2022-09-29T17:46:22.804Z,100.00
2022-09-29T17:48:49.228Z,100.00
2022-09-29T17:51:18.208Z,100.00
2022-09-29T17:53:44.749Z,100.00
2022-09-29T17:56:18.145Z,100.00
2022-09-29T17:58:44.591Z,100.00
2022-09-29T18:01:11.084Z,100.00
2022-09-29T18:03:40.171Z,100.00
2022-09-29T18:06:06.863Z,100.00
2022-09-29T18:08:33.330Z,100.00
2022-09-29T18:11:00.852Z,100.00
2022-09-29T18:13:28.369Z,100.00
2022-09-29T18:15:55.205Z,100.00
2022-09-29T18:18:22.420Z,100.00
2022-09-29T18:20:50.082Z,100.00
2022-09-29T18:23:17.118Z,100.00
2022-09-29T18:25:47.682Z,100.00
2022-09-29T18:28:15.416Z,100.00
2022-09-29T18:30:42.826Z,100.00
2022-09-29T18:33:14.384Z,100.00
2022-09-29T18:35:41.805Z,100.00
2022-09-29T18:38:08.279Z,100.00
2022-09-29T18:40:35.033Z,100.00
2022-09-29T18:43:01.973Z,100.00
2022-09-29T18:45:29.764Z,100.00
2022-09-29T18:48:03.395Z,100.00
2022-09-29T18:50:31.193Z,100.00
2022-09-29T18:52:59.254Z,100.00
2022-09-29T18:55:26.478Z,100.00
2022-09-29T18:57:53.501Z,100.00
2022-09-29T19:00:21.870Z,100.00
2022-09-29T19:02:48.805Z,100.00
2022-09-29T19:05:18.585Z,100.00
2022-09-29T19:07:45.701Z,100.00
2022-09-29T19:10:14.250Z,100.00
2022-09-29T19:12:45.125Z,100.00
2022-09-29T19:15:12.194Z,100.00
2022-09-29T19:17:38.667Z,100.00
2022-09-29T19:20:05.367Z,100.00
2022-09-29T19:22:38.303Z,100.00
2022-09-29T19:25:06.494Z,100.00
2022-09-29T19:27:33.009Z,100.00
2022-09-29T19:30:03.207Z,100.00
2022-09-29T19:32:30.178Z,100.00
2022-09-29T19:34:56.755Z,100.00
2022-09-29T19:37:24.112Z,100.00
2022-09-29T19:39:50.861Z,100.00
2022-09-29T19:42:17.378Z,100.00
2022-09-29T19:44:43.895Z,100.00
2022-09-29T19:47:11.020Z,100.00
2022-09-29T19:49:37.483Z,100.00
2022-09-29T19:52:04.534Z,100.00
2022-09-29T19:54:33.316Z,100.00
2022-09-29T19:57:01.596Z,100.00
2022-09-29T19:59:32.907Z,100.00
2022-09-29T20:01:59.924Z,100.00
2022-09-29T20:04:30.469Z,100.00
2022-09-29T20:06:57.898Z,100.00
2022-09-29T20:09:25.135Z,100.00
2022-09-29T20:12:19.586Z,100.00
2022-09-29T20:14:46.169Z,100.00
2022-09-29T20:17:14.401Z,100.00
2022-09-29T20:19:41.298Z,100.00
2022-09-29T20:22:09.362Z,100.00
2022-09-29T20:24:35.910Z,100.00
2022-09-29T20:27:02.356Z,100.00
2022-09-29T20:29:29.742Z,100.00
2022-09-29T20:31:56.555Z,100.00
2022-09-29T20:34:23.463Z,100.00
2022-09-29T20:36:54.462Z,100.00
2022-09-29T20:39:21.718Z,100.00
2022-09-29T20:41:49.989Z,100.00
2022-09-29T20:44:19.935Z,100.00
2022-09-29T20:46:46.625Z,100.00
2022-09-29T20:49:13.154Z,100.00
2022-09-29T20:51:39.602Z,100.00
2022-09-29T20:54:06.004Z,100.00
2022-09-29T20:56:40.065Z,100.00
2022-09-29T20:59:06.525Z,100.00
2022-09-29T21:01:33.011Z,100.00
2022-09-29T21:04:00.572Z,100.00
2022-09-29T21:06:28.091Z,100.00
2022-09-29T21:08:54.730Z,100.00
2022-09-29T21:11:22.574Z,100.00
2022-09-29T21:13:50.842Z,100.00
2022-09-29T21:16:18.140Z,100.00
2022-09-29T21:18:45.038Z,100.00
2022-09-29T21:21:11.961Z,100.00
2022-09-29T21:23:39.796Z,100.00
2022-09-29T21:26:08.649Z,100.00
2022-09-29T21:28:39.083Z,100.00
2022-09-29T21:31:06.975Z,100.00
2022-09-29T21:33:34.425Z,100.00
2022-09-29T21:36:02.095Z,100.00
2022-09-29T21:38:32.037Z,100.00
2022-09-29T21:41:04.575Z,100.00
2022-09-29T21:43:32.785Z,100.00
2022-09-29T21:46:00.174Z,100.00
2022-09-29T21:48:27.086Z,100.00
2022-09-29T21:51:00.482Z,100.00
2022-09-29T21:53:26.925Z,100.00
2022-09-29T21:55:53.350Z,100.00
2022-09-29T21:58:19.830Z,100.00
2022-09-29T22:00:47.511Z,100.00
2022-09-29T22:03:15.836Z,100.00
2022-09-29T22:05:42.582Z,100.00
2022-09-29T22:08:12.227Z,100.00
2022-09-29T22:10:38.944Z,100.00
2022-09-29T22:13:05.360Z,100.00
2022-09-29T22:15:34.847Z,100.00
2022-09-29T22:18:01.315Z,100.00
2022-09-29T22:20:27.732Z,100.00
2022-09-29T22:22:54.179Z,100.00
2022-09-29T22:25:20.603Z,100.00
2022-09-29T22:27:47.090Z,100.00
2022-09-29T22:30:13.518Z,100.00
2022-09-29T22:32:40.016Z,100.00
2022-09-29T22:35:06.615Z,100.00
2022-09-29T22:37:33.048Z,100.00
2022-09-29T22:39:59.619Z,100.00
2022-09-29T22:42:26.017Z,100.00
2022-09-29T22:44:52.445Z,100.00
2022-09-29T22:47:18.877Z,100.00
2022-09-29T22:49:45.505Z,100.00
2022-09-29T22:52:11.945Z,100.00
2022-09-29T22:54:38.357Z,100.00
2022-09-29T22:57:06.085Z,100.00
2022-09-29T22:59:32.566Z,100.00
2022-09-29T23:01:59.097Z,100.00
2022-09-29T23:04:25.579Z,100.00
2022-09-29T23:06:52.601Z,100.00
2022-09-29T23:09:19.367Z,100.00
2022-09-29T23:11:46.071Z,100.00
2022-09-29T23:14:12.702Z,100.00
2022-09-29T23:16:39.181Z,100.00
2022-09-29T23:19:05.642Z,100.00
2022-09-29T23:21:33.476Z,100.00
2022-09-29T23:24:01.496Z,100.00
2022-09-29T23:26:29.332Z,100.00
2022-09-29T23:28:55.814Z,100.00
2022-09-29T23:31:22.397Z,100.00
2022-09-29T23:33:55.999Z,100.00
2022-09-29T23:36:22.973Z,100.00
2022-09-29T23:39:08.157Z,100.00
2022-09-29T23:41:34.617Z,100.00
2022-09-29T23:44:05.345Z,100.00
2022-09-29T23:46:33.801Z,100.00
2022-09-29T23:49:01.217Z,100.00
2022-09-29T23:51:28.767Z,100.00
2022-09-29T23:53:55.213Z,100.00
2022-09-29T23:56:21.710Z,100.00
2022-09-29T23:58:48.150Z,100.00
